createdAt,value
2018-09-21T00:00:17.244Z,99.90
2018-09-21T00:02:45.036Z,99.90
2018-09-21T00:05:12.867Z,99.90
2018-09-21T00:07:40.686Z,99.90
2018-09-21T00:10:08.559Z,99.90
2018-09-21T00:12:36.308Z,99.90
2018-09-21T00:15:04.281Z,99.90
2018-09-21T00:17:32.180Z,99.90
2018-09-21T00:19:59.991Z,99.90
2018-09-21T00:22:27.846Z,99.90
2018-09-21T00:24:55.660Z,99.90
2018-09-21T00:27:23.497Z,99.90
2018-09-21T00:29:51.332Z,99.90
2018-09-21T00:32:19.142Z,99.90
2018-09-21T00:34:47.020Z,99.90
2018-09-21T00:37:14.895Z,99.90
2018-09-21T00:39:42.669Z,99.90
2018-09-21T00:42:10.470Z,99.90
2018-09-21T00:44:38.223Z,99.90
2018-09-21T00:47:06.087Z,99.90
2018-09-21T00:49:33.881Z,99.90
2018-09-21T00:52:01.654Z,99.90
2018-09-21T00:54:29.576Z,99.90
2018-09-21T00:56:57.535Z,99.90
2018-09-21T00:59:25.304Z,99.90
2018-09-21T01:01:53.133Z,99.90
2018-09-21T01:04:21.073Z,99.90
2018-09-21T01:06:48.829Z,99.90
2018-09-21T01:09:16.657Z,99.90
2018-09-21T01:11:48.129Z,99.90
2018-09-21T01:14:16.064Z,99.90
2018-09-21T01:16:43.901Z,99.90
2018-09-21T01:19:11.741Z,99.90
2018-09-21T01:21:39.512Z,99.90
2018-09-21T01:24:07.400Z,99.90
2018-09-21T01:26:35.255Z,99.90
2018-09-21T01:29:03.152Z,99.90
2018-09-21T01:31:30.968Z,99.90
2018-09-21T01:33:58.796Z,99.90
2018-09-21T01:36:26.559Z,99.90
2018-09-21T01:38:54.445Z,99.90
2018-09-21T01:41:22.287Z,99.90
2018-09-21T01:43:50.067Z,99.90
2018-09-21T01:46:17.964Z,99.90
2018-09-21T01:48:45.839Z,99.90
2018-09-21T01:51:13.584Z,99.90
2018-09-21T01:53:41.416Z,99.90
2018-09-21T01:56:09.156Z,99.90
2018-09-21T01:58:37.005Z,99.90
2018-09-21T02:01:04.853Z,99.90
2018-09-21T02:03:32.651Z,99.90
2018-09-21T02:06:00.440Z,99.90
2018-09-21T02:08:28.233Z,99.90
2018-09-21T02:10:56.065Z,99.90
2018-09-21T02:13:24.081Z,99.90
2018-09-21T02:15:52.165Z,99.90
2018-09-21T02:18:19.981Z,99.90
2018-09-21T02:20:47.752Z,99.90
2018-09-21T02:23:15.704Z,99.90
2018-09-21T02:25:43.511Z,99.90
2018-09-21T02:28:11.360Z,99.90
2018-09-21T02:30:39.282Z,99.90
2018-09-21T02:33:07.055Z,99.90
2018-09-21T02:35:34.801Z,99.90
2018-09-21T02:38:02.619Z,99.90
2018-09-21T02:40:30.336Z,99.90
2018-09-21T02:42:58.084Z,99.90
2018-09-21T02:45:25.915Z,99.90
2018-09-21T02:47:53.745Z,99.90
2018-09-21T02:50:21.852Z,99.90
2018-09-21T02:52:49.669Z,99.90
2018-09-21T02:55:17.549Z,99.90
2018-09-21T02:57:45.368Z,99.90
2018-09-21T03:00:13.180Z,99.90
2018-09-21T03:02:40.967Z,99.90
2018-09-21T03:05:08.852Z,99.90
2018-09-21T03:07:36.726Z,99.90
2018-09-21T03:10:04.628Z,99.90
2018-09-21T03:12:32.427Z,99.90
2018-09-21T03:15:00.253Z,99.90
2018-09-21T03:17:28.097Z,99.90
2018-09-21T03:19:55.954Z,99.90
2018-09-21T03:22:23.768Z,99.90
2018-09-21T03:24:51.532Z,99.90
2018-09-21T03:27:19.335Z,99.90
2018-09-21T03:29:47.295Z,99.90
2018-09-21T03:32:15.151Z,99.90
2018-09-21T03:34:42.968Z,99.90
2018-09-21T03:37:10.748Z,99.90
2018-09-21T03:39:38.597Z,99.90
2018-09-21T03:42:06.480Z,99.90
2018-09-21T03:44:34.265Z,99.90
2018-09-21T03:47:02.076Z,99.90
2018-09-21T03:49:29.950Z,99.90
2018-09-21T03:51:57.773Z,99.90
2018-09-21T03:54:25.520Z,99.90
2018-09-21T03:56:53.355Z,99.90
2018-09-21T03:59:21.194Z,99.90
2018-09-21T04:01:48.994Z,99.90
2018-09-21T04:04:16.920Z,99.90
2018-09-21T04:06:45.024Z,99.90
2018-09-21T04:09:13.893Z,99.90
2018-09-21T04:11:41.796Z,99.90
2018-09-21T04:14:09.560Z,99.90
2018-09-21T04:16:37.408Z,99.90
2018-09-21T04:19:05.536Z,99.90
2018-09-21T04:21:33.341Z,99.90
2018-09-21T04:24:01.145Z,99.90
2018-09-21T04:26:28.960Z,99.90
2018-09-21T04:28:56.786Z,99.90
2018-09-21T04:31:24.556Z,99.90
2018-09-21T04:33:52.353Z,99.90
2018-09-21T04:36:20.173Z,99.90
2018-09-21T04:38:47.995Z,99.90
2018-09-21T04:41:15.826Z,99.90
2018-09-21T04:43:43.713Z,99.90
2018-09-21T04:46:11.526Z,99.90
2018-09-21T04:48:39.500Z,99.90
2018-09-21T04:51:07.572Z,99.90
2018-09-21T04:53:37.561Z,99.90
2018-09-21T04:56:05.404Z,99.90
2018-09-21T04:58:33.217Z,99.90
2018-09-21T05:01:01.022Z,99.90
2018-09-21T05:03:28.829Z,99.90
2018-09-21T05:05:56.688Z,99.90
2018-09-21T05:08:24.516Z,99.90
2018-09-21T05:10:52.318Z,99.90
2018-09-21T05:13:24.578Z,99.90
2018-09-21T05:15:52.450Z,99.90
2018-09-21T05:18:20.290Z,99.90
2018-09-21T05:20:48.130Z,99.90
2018-09-21T05:23:15.944Z,99.90
2018-09-21T05:25:43.824Z,99.90
2018-09-21T05:28:11.616Z,99.90
2018-09-21T05:30:39.400Z,99.90
2018-09-21T05:33:07.204Z,99.90
2018-09-21T05:35:35.030Z,99.90
2018-09-21T05:38:02.914Z,99.90
2018-09-21T05:40:30.712Z,99.90
2018-09-21T05:42:58.531Z,99.90
2018-09-21T05:45:26.356Z,99.90
2018-09-21T05:47:54.144Z,99.90
2018-09-21T05:50:21.924Z,99.90
2018-09-21T05:52:49.760Z,99.90
2018-09-21T05:55:17.641Z,99.90
2018-09-21T05:57:45.439Z,99.90
2018-09-21T06:00:15.074Z,99.90
2018-09-21T06:02:43.347Z,99.90
2018-09-21T06:05:11.132Z,99.90
2018-09-21T06:07:39.082Z,99.90
2018-09-21T06:10:07.564Z,99.90
2018-09-21T06:12:35.956Z,99.90
2018-09-21T06:15:04.541Z,99.90
2018-09-21T06:17:32.353Z,99.90
2018-09-21T06:20:11.869Z,99.90
2018-09-21T06:22:28.033Z,99.90
2018-09-21T06:24:55.895Z,99.90
2018-09-21T06:27:23.757Z,99.90
2018-09-21T06:29:51.584Z,99.90
2018-09-21T06:32:19.388Z,99.90
2018-09-21T06:34:47.200Z,99.90
2018-09-21T06:37:15.079Z,99.90
2018-09-21T06:39:42.885Z,99.90
2018-09-21T06:42:10.715Z,99.90
2018-09-21T06:44:38.551Z,99.90
2018-09-21T06:47:06.344Z,99.90
2018-09-21T06:49:34.213Z,99.90
2018-09-21T06:52:02.855Z,99.90
2018-09-21T06:54:30.741Z,99.90
2018-09-21T06:56:58.592Z,99.90
2018-09-21T06:59:26.464Z,99.90
2018-09-21T07:01:54.295Z,99.90
2018-09-21T07:04:22.157Z,99.90
2018-09-21T07:06:49.945Z,99.90
2018-09-21T07:09:17.909Z,99.90
2018-09-21T07:11:45.771Z,99.90
2018-09-21T07:14:13.643Z,99.90
2018-09-21T07:16:41.824Z,99.90
2018-09-21T07:19:09.664Z,99.40
2018-09-21T07:21:40.924Z,99.10
2018-09-21T07:24:08.885Z,98.70
2018-09-21T07:26:36.800Z,98.30
2018-09-21T07:29:04.692Z,98.40
2018-09-21T07:31:32.793Z,98.10
2018-09-21T07:34:00.689Z,97.90
2018-09-21T07:36:28.485Z,97.60
2018-09-21T07:38:56.304Z,96.70
2018-09-21T07:41:24.136Z,96.10
2018-09-21T07:43:54.545Z,96.30
2018-09-21T07:46:22.384Z,95.70
2018-09-21T07:48:50.233Z,95.60
2018-09-21T07:51:18.168Z,95.50
2018-09-21T07:53:45.959Z,95.40
2018-09-21T07:56:13.806Z,95.00
2018-09-21T07:58:41.624Z,94.80
2018-09-21T08:01:09.420Z,94.20
2018-09-21T08:03:37.188Z,93.00
2018-09-21T08:06:05.013Z,92.40
2018-09-21T08:08:32.843Z,92.50
2018-09-21T08:11:00.635Z,91.00
2018-09-21T08:13:28.543Z,90.00
2018-09-21T08:15:56.320Z,90.10
2018-09-21T08:18:24.110Z,90.50
2018-09-21T08:20:51.948Z,90.10
2018-09-21T08:23:19.758Z,88.00
2018-09-21T08:25:47.689Z,88.80
2018-09-21T08:28:15.575Z,87.90
2018-09-21T08:30:50.427Z,89.90
2018-09-21T08:33:18.299Z,86.20
2018-09-21T08:35:46.069Z,86.80
2018-09-21T08:38:13.998Z,87.40
2018-09-21T08:40:42.759Z,85.50
2018-09-21T08:43:10.646Z,85.00
2018-09-21T08:45:38.551Z,83.80
2018-09-21T08:48:06.721Z,83.20
2018-09-21T08:50:36.146Z,83.10
2018-09-21T08:53:12.468Z,82.90
2018-09-21T08:55:41.675Z,82.60
2018-09-21T08:58:09.600Z,81.90
2018-09-21T09:00:37.427Z,82.20
2018-09-21T09:03:05.348Z,81.30
2018-09-21T09:05:38.961Z,81.40
2018-09-21T09:08:06.771Z,83.00
2018-09-21T09:10:34.606Z,82.60
2018-09-21T09:13:02.409Z,81.90
2018-09-21T09:15:30.324Z,81.80
2018-09-21T09:17:58.153Z,82.60
2018-09-21T09:20:25.971Z,80.90
2018-09-21T09:22:53.912Z,81.50
2018-09-21T09:25:21.728Z,80.40
2018-09-21T09:27:49.528Z,81.00
2018-09-21T09:30:17.392Z,82.20
2018-09-21T09:32:45.204Z,79.80
2018-09-21T09:35:13.127Z,79.90
2018-09-21T09:37:40.948Z,79.90
2018-09-21T09:40:08.725Z,80.40
2018-09-21T09:42:36.522Z,82.00
2018-09-21T09:45:04.751Z,81.20
2018-09-21T09:47:32.592Z,80.30
2018-09-21T09:50:00.396Z,80.80
2018-09-21T09:52:28.237Z,81.00
2018-09-21T09:54:56.341Z,80.40
2018-09-21T09:57:24.061Z,80.30
2018-09-21T09:59:51.841Z,80.30
2018-09-21T10:02:19.618Z,81.00
2018-09-21T10:04:47.438Z,80.10
2018-09-21T10:07:15.299Z,80.50
2018-09-21T10:09:43.124Z,80.90
2018-09-21T10:12:10.988Z,81.20
2018-09-21T10:14:38.847Z,80.00
2018-09-21T10:17:06.926Z,78.50
2018-09-21T10:19:34.820Z,78.40
2018-09-21T10:22:02.663Z,78.10
2018-09-21T10:24:30.477Z,77.30
2018-09-21T10:26:58.370Z,77.30
2018-09-21T10:29:26.136Z,76.20
2018-09-21T10:31:53.968Z,75.30
2018-09-21T10:34:25.729Z,74.00
2018-09-21T10:36:53.651Z,74.80
2018-09-21T10:39:21.597Z,73.20
2018-09-21T10:41:49.309Z,72.60
2018-09-21T10:44:17.138Z,74.40
2018-09-21T10:46:44.897Z,72.80
2018-09-21T10:49:12.752Z,72.60
2018-09-21T10:51:40.588Z,72.00
2018-09-21T10:54:08.494Z,71.20
2018-09-21T10:56:36.261Z,71.80
2018-09-21T10:59:04.140Z,72.20
2018-09-21T11:01:31.945Z,71.00
2018-09-21T11:03:59.850Z,70.30
2018-09-21T11:06:27.635Z,70.00
2018-09-21T11:08:55.480Z,69.30
2018-09-21T11:11:23.396Z,70.00
2018-09-21T11:13:51.196Z,69.30
2018-09-21T11:16:19.006Z,68.70
2018-09-21T11:18:46.809Z,68.90
2018-09-21T11:21:14.632Z,70.20
2018-09-21T11:23:42.452Z,69.00
2018-09-21T11:26:10.276Z,69.10
2018-09-21T11:28:38.059Z,69.40
2018-09-21T11:31:05.901Z,68.80
2018-09-21T11:33:33.648Z,68.60
2018-09-21T11:36:01.468Z,68.10
2018-09-21T11:38:29.241Z,68.20
2018-09-21T11:40:57.118Z,68.70
2018-09-21T11:43:24.884Z,67.90
2018-09-21T11:45:52.730Z,66.70
2018-09-21T11:48:20.682Z,67.50
2018-09-21T11:50:48.514Z,67.90
2018-09-21T11:53:16.360Z,67.70
2018-09-21T11:55:44.259Z,68.20
2018-09-21T11:58:12.132Z,69.30
2018-09-21T12:00:41.141Z,68.10
2018-09-21T12:03:09.125Z,68.40
2018-09-21T12:05:37.008Z,69.50
2018-09-21T12:08:04.885Z,68.40
2018-09-21T12:10:32.775Z,68.20
2018-09-21T12:13:00.675Z,66.90
2018-09-21T12:15:28.537Z,67.50
2018-09-21T12:17:56.430Z,66.90
2018-09-21T12:20:24.247Z,66.80
2018-09-21T12:22:55.509Z,64.50
2018-09-21T12:25:23.427Z,65.60
2018-09-21T12:27:51.312Z,64.60
2018-09-21T12:30:19.196Z,64.80
2018-09-21T12:32:46.988Z,66.20
2018-09-21T12:35:14.834Z,66.00
2018-09-21T12:37:42.648Z,68.90
2018-09-21T12:40:10.528Z,70.60
2018-09-21T12:42:38.485Z,72.80
2018-09-21T12:45:06.632Z,77.10
2018-09-21T12:47:34.547Z,82.30
2018-09-21T12:50:02.447Z,84.80
2018-09-21T12:52:30.314Z,86.10
2018-09-21T12:54:58.160Z,88.30
2018-09-21T12:57:26.068Z,87.80
2018-09-21T12:59:53.943Z,88.90
2018-09-21T13:02:21.836Z,91.40
2018-09-21T13:04:49.908Z,94.80
2018-09-21T13:07:17.655Z,95.20
2018-09-21T13:09:46.075Z,93.40
2018-09-21T13:12:20.138Z,96.70
2018-09-21T13:14:48.141Z,96.50
2018-09-21T13:17:15.936Z,96.80
2018-09-21T13:19:43.791Z,96.80
2018-09-21T13:22:17.123Z,96.90
2018-09-21T13:24:44.972Z,98.80
2018-09-21T13:27:16.275Z,98.20
2018-09-21T13:29:47.916Z,99.90
2018-09-21T13:32:15.767Z,99.90
2018-09-21T13:34:43.600Z,99.90
2018-09-21T13:37:17.010Z,99.90
2018-09-21T13:39:44.874Z,99.90
2018-09-21T13:42:12.692Z,99.90
2018-09-21T13:44:40.515Z,99.90
2018-09-21T13:47:09.191Z,99.90
2018-09-21T13:49:36.923Z,99.90
2018-09-21T13:52:04.824Z,99.90
2018-09-21T13:54:32.693Z,99.90
2018-09-21T13:57:00.490Z,99.90
2018-09-21T13:59:28.356Z,99.90
2018-09-21T14:01:56.200Z,99.90
2018-09-21T14:04:26.006Z,99.90
2018-09-21T14:06:53.780Z,99.90
2018-09-21T14:09:21.588Z,99.90
2018-09-21T14:11:49.488Z,99.90
2018-09-21T14:14:17.396Z,99.90
2018-09-21T14:16:45.208Z,99.90
2018-09-21T14:19:13.155Z,99.90
2018-09-21T14:21:41.097Z,99.90
2018-09-21T14:24:08.912Z,99.90
2018-09-21T14:26:36.772Z,99.90
2018-09-21T14:29:04.697Z,99.90
2018-09-21T14:31:32.446Z,99.90
2018-09-21T14:34:00.290Z,99.90
2018-09-21T14:36:28.312Z,99.90
2018-09-21T14:38:56.096Z,99.90
2018-09-21T14:41:23.865Z,99.90
2018-09-21T14:43:51.636Z,99.90
2018-09-21T14:46:19.481Z,99.90
2018-09-21T14:48:47.347Z,99.90
2018-09-21T14:51:15.280Z,99.90
2018-09-21T14:53:43.215Z,99.90
2018-09-21T14:56:19.907Z,99.90
2018-09-21T14:58:51.283Z,99.90
2018-09-21T15:01:19.301Z,99.90
2018-09-21T15:03:47.288Z,99.90
2018-09-21T15:06:15.266Z,99.90
2018-09-21T15:08:43.095Z,99.90
2018-09-21T15:11:11.371Z,99.90
2018-09-21T15:13:39.138Z,99.90
2018-09-21T15:16:11.669Z,99.90
2018-09-21T15:18:39.481Z,99.90
2018-09-21T15:21:07.304Z,99.90
2018-09-21T15:23:35.136Z,99.90
2018-09-21T15:26:02.996Z,99.90
2018-09-21T15:28:30.760Z,99.90
2018-09-21T15:30:58.656Z,99.90
2018-09-21T15:33:26.509Z,99.90
2018-09-21T15:35:54.324Z,99.90
2018-09-21T15:38:22.115Z,99.90
2018-09-21T15:40:49.961Z,99.90
2018-09-21T15:43:17.996Z,99.90
2018-09-21T15:45:45.736Z,99.90
2018-09-21T15:48:13.644Z,99.90
2018-09-21T15:50:41.527Z,99.90
2018-09-21T15:53:09.352Z,99.90
2018-09-21T15:55:37.132Z,99.90
2018-09-21T15:58:05.221Z,99.90
2018-09-21T16:00:33.166Z,99.90
2018-09-21T16:03:00.940Z,99.90
2018-09-21T16:05:28.772Z,99.90
2018-09-21T16:07:56.540Z,99.90
2018-09-21T16:10:24.268Z,99.90
2018-09-21T16:12:52.147Z,99.90
2018-09-21T16:15:20.056Z,99.90
2018-09-21T16:17:48.135Z,99.90
2018-09-21T16:20:16.008Z,99.90
2018-09-21T16:22:43.808Z,99.90
2018-09-21T16:25:12.220Z,99.90
2018-09-21T16:27:40.139Z,99.90
2018-09-21T16:30:08.892Z,99.90
2018-09-21T16:32:36.792Z,99.90
2018-09-21T16:35:05.256Z,99.90
2018-09-21T16:37:33.076Z,99.90
2018-09-21T16:40:00.928Z,99.90
2018-09-21T16:42:28.911Z,99.90
2018-09-21T16:44:56.741Z,99.90
2018-09-21T16:47:24.533Z,99.90
2018-09-21T16:49:52.487Z,99.90
2018-09-21T16:52:20.371Z,99.90
2018-09-21T16:54:48.160Z,99.90
2018-09-21T16:57:16.041Z,99.90
2018-09-21T16:59:43.819Z,99.90
2018-09-21T17:02:11.657Z,99.90
2018-09-21T17:04:39.524Z,99.70
2018-09-21T17:07:07.371Z,99.90
2018-09-21T17:09:35.282Z,99.90
2018-09-21T17:12:03.033Z,99.80
2018-09-21T17:14:30.885Z,99.70
2018-09-21T17:16:58.820Z,99.90
2018-09-21T17:19:26.624Z,99.60
2018-09-21T17:21:54.473Z,99.20
2018-09-21T17:24:22.260Z,99.40
2018-09-21T17:26:50.108Z,98.90
2018-09-21T17:29:17.827Z,98.70
2018-09-21T17:31:45.653Z,98.90
2018-09-21T17:34:13.442Z,98.80
2018-09-21T17:36:41.340Z,96.50
2018-09-21T17:39:11.188Z,97.30
2018-09-21T17:41:39.023Z,97.20
2018-09-21T17:44:07.109Z,96.50
2018-09-21T17:46:35.000Z,96.70
2018-09-21T17:49:02.917Z,96.00
2018-09-21T17:51:30.756Z,95.50
2018-09-21T17:53:58.605Z,95.60
2018-09-21T17:56:26.334Z,93.20
2018-09-21T17:58:54.153Z,95.20
2018-09-21T18:01:21.968Z,93.30
2018-09-21T18:03:49.777Z,91.20
2018-09-21T18:06:17.573Z,92.80
2018-09-21T18:08:45.353Z,91.90
2018-09-21T18:11:14.566Z,93.60
2018-09-21T18:13:42.349Z,91.90
2018-09-21T18:16:10.391Z,92.50
2018-09-21T18:18:38.043Z,92.20
2018-09-21T18:21:06.096Z,92.70
2018-09-21T18:23:35.236Z,92.80
2018-09-21T18:26:03.264Z,91.70
2018-09-21T18:28:30.943Z,91.40
2018-09-21T18:30:58.714Z,89.70
2018-09-21T18:33:26.624Z,92.30
2018-09-21T18:35:54.532Z,92.50
2018-09-21T18:38:22.352Z,93.00
2018-09-21T18:40:50.179Z,92.80
2018-09-21T18:43:18.036Z,91.70
2018-09-21T18:45:45.862Z,92.60
2018-09-21T18:48:13.751Z,91.30
2018-09-21T18:50:41.547Z,91.20
2018-09-21T18:53:09.368Z,90.50
2018-09-21T18:55:37.860Z,90.50
2018-09-21T18:58:08.743Z,91.20
2018-09-21T19:00:37.195Z,89.40
2018-09-21T19:03:05.144Z,87.90
2018-09-21T19:05:35.759Z,90.00
2018-09-21T19:08:04.010Z,90.60
2018-09-21T19:10:31.888Z,90.40
2018-09-21T19:13:00.857Z,91.50
2018-09-21T19:15:28.695Z,92.20
2018-09-21T19:17:56.570Z,90.50
2018-09-21T19:20:24.867Z,90.10
2018-09-21T19:22:52.757Z,91.30
2018-09-21T19:25:22.218Z,90.60
2018-09-21T19:27:50.290Z,91.80
2018-09-21T19:30:20.199Z,91.80
2018-09-21T19:32:48.146Z,91.60
2018-09-21T19:35:15.964Z,91.80
2018-09-21T19:37:51.213Z,92.10
2018-09-21T19:40:21.997Z,92.10
2018-09-21T19:42:50.154Z,92.90
2018-09-21T19:45:17.871Z,92.20
2018-09-21T19:47:45.639Z,92.00
2018-09-21T19:50:18.324Z,92.80
2018-09-21T19:52:46.194Z,92.10
2018-09-21T19:55:14.386Z,92.40
2018-09-21T19:57:43.672Z,92.20
2018-09-21T20:00:11.500Z,92.10
2018-09-21T20:02:39.355Z,92.50
2018-09-21T20:05:07.437Z,92.10
2018-09-21T20:07:35.327Z,92.30
2018-09-21T20:10:03.931Z,91.70
2018-09-21T20:12:32.691Z,91.40
2018-09-21T20:15:01.255Z,91.50
2018-09-21T20:17:33.842Z,92.10
2018-09-21T20:20:02.026Z,91.90
2018-09-21T20:22:31.927Z,92.50
2018-09-21T20:24:59.748Z,92.60
2018-09-21T20:27:28.041Z,93.20
2018-09-21T20:30:01.592Z,93.40
2018-09-21T20:32:35.036Z,93.20
2018-09-21T20:35:03.070Z,93.80
2018-09-21T20:37:30.871Z,93.80
2018-09-21T20:39:58.648Z,93.70
2018-09-21T20:42:26.712Z,93.60
2018-09-21T20:44:54.563Z,93.90
2018-09-21T20:47:22.360Z,94.00
2018-09-21T20:49:50.231Z,93.70
2018-09-21T20:52:18.064Z,94.00
2018-09-21T20:54:45.917Z,94.20
2018-09-21T20:57:13.746Z,94.00
2018-09-21T20:59:41.638Z,94.20
2018-09-21T21:02:09.845Z,94.10
2018-09-21T21:04:38.171Z,93.70
2018-09-21T21:07:06.119Z,93.80
2018-09-21T21:09:34.405Z,93.70
2018-09-21T21:12:03.445Z,93.20
2018-09-21T21:14:31.736Z,92.80
2018-09-21T21:16:59.921Z,92.40
2018-09-21T21:19:27.744Z,92.20
2018-09-21T21:21:55.776Z,91.80
2018-09-21T21:24:24.074Z,91.90
2018-09-21T21:26:53.977Z,92.30
2018-09-21T21:29:21.802Z,92.50
2018-09-21T21:31:50.383Z,93.00
2018-09-21T21:34:18.681Z,93.60
2018-09-21T21:36:46.780Z,93.80
2018-09-21T21:39:15.057Z,93.70
2018-09-21T21:41:43.241Z,93.40
2018-09-21T21:44:11.108Z,93.30
2018-09-21T21:46:38.948Z,92.40
2018-09-21T21:49:06.741Z,92.10
2018-09-21T21:51:34.621Z,92.60
2018-09-21T21:54:02.485Z,92.00
2018-09-21T21:56:30.359Z,91.50
2018-09-21T21:58:58.179Z,91.60
2018-09-21T22:01:31.755Z,91.40
2018-09-21T22:03:59.531Z,90.80
2018-09-21T22:06:27.367Z,90.80
2018-09-21T22:08:55.184Z,91.00
2018-09-21T22:11:29.144Z,91.40
2018-09-21T22:14:02.567Z,90.80
2018-09-21T22:16:30.400Z,91.20
2018-09-21T22:18:58.256Z,90.40
2018-09-21T22:21:26.130Z,90.20
2018-09-21T22:23:53.935Z,90.60
2018-09-21T22:26:21.799Z,90.80
2018-09-21T22:28:49.627Z,91.20
2018-09-21T22:31:17.416Z,91.70
2018-09-21T22:33:45.175Z,91.80
2018-09-21T22:36:13.044Z,92.00
2018-09-21T22:38:40.880Z,92.10
2018-09-21T22:41:08.712Z,92.20
2018-09-21T22:43:36.492Z,92.50
2018-09-21T22:46:04.319Z,92.50
2018-09-21T22:48:32.213Z,92.60
2018-09-21T22:50:59.987Z,92.60
2018-09-21T22:53:27.777Z,92.80
2018-09-21T22:55:55.710Z,92.50
2018-09-21T22:58:23.631Z,92.80
2018-09-21T23:00:51.486Z,92.50
2018-09-21T23:03:19.307Z,92.70
2018-09-21T23:05:47.152Z,92.40
2018-09-21T23:08:14.963Z,92.30
2018-09-21T23:10:42.765Z,92.00
2018-09-21T23:13:10.591Z,92.20
2018-09-21T23:15:38.440Z,92.50
2018-09-21T23:18:06.494Z,92.50
2018-09-21T23:20:34.346Z,92.50
2018-09-21T23:23:02.240Z,92.80
2018-09-21T23:25:30.073Z,92.60
2018-09-21T23:27:57.896Z,92.70
2018-09-21T23:30:25.743Z,92.40
2018-09-21T23:32:53.584Z,92.80
2018-09-21T23:35:21.497Z,93.00
2018-09-21T23:37:49.320Z,93.00
2018-09-21T23:40:17.200Z,92.70
2018-09-21T23:42:44.966Z,92.60
2018-09-21T23:45:12.796Z,92.70
2018-09-21T23:47:40.856Z,92.80
2018-09-21T23:50:08.799Z,92.80
2018-09-21T23:52:36.683Z,92.80
2018-09-21T23:55:05.103Z,92.70
2018-09-21T23:57:32.968Z,92.90
